Time;durP1;ratioP1;P1;durP2;ratioP2;P2;SDS_P1;SDS_P2;PMS_P1;PMS_P2;Temp;Humidity;BMP_temperature;BMP_pressure;BME280_temperature;BME280_humidity;BME280_pressure;Samples;Min_cycle;Max_cycle;Signal;HPM_P1;HPM_P2
2021/01/06 00:01:33;;;;;;;4.18;3.70;;;5.60;99.90;;;;;;5088640;28;20204;-77
2021/01/06 00:03:59;;;;;;;6.30;5.07;;;5.60;99.90;;;;;;5091933;28;20202;-77
2021/01/06 00:06:27;;;;;;;5.70;3.97;;;5.70;99.90;;;;;;5091291;28;20193;-76
2021/01/06 00:08:53;;;;;;;4.38;3.97;;;5.70;99.90;;;;;;5085449;28;20190;-77
2021/01/06 00:11:22;;;;;;;5.82;4.63;;;5.70;99.90;;;;;;5091523;28;20201;-77
2021/01/06 00:13:50;;;;;;;3.97;3.42;;;5.60;99.90;;;;;;5092008;28;20262;-78
2021/01/06 00:16:16;;;;;;;5.03;4.38;;;5.60;99.90;;;;;;5082306;28;20236;-77
2021/01/06 00:18:42;;;;;;;5.57;3.35;;;5.60;99.90;;;;;;5071981;28;20216;-78
2021/01/06 00:21:11;;;;;;;6.18;4.30;;;5.50;99.90;;;;;;5071743;28;20209;-77
2021/01/06 00:23:37;;;;;;;3.85;3.50;;;5.60;99.90;;;;;;5074414;28;20185;-78
2021/01/06 00:26:04;;;;;;;4.15;3.63;;;5.60;99.90;;;;;;5092026;28;20193;-78
2021/01/06 00:28:30;;;;;;;4.60;3.78;;;5.60;99.90;;;;;;5081865;28;20196;-78
2021/01/06 00:30:58;;;;;;;3.83;3.47;;;5.60;99.90;;;;;;5071473;28;20255;-77
2021/01/06 00:33:27;;;;;;;3.38;3.08;;;5.70;99.90;;;;;;5072048;28;20522;-76
2021/01/06 00:35:55;;;;;;;4.72;3.97;;;5.70;99.90;;;;;;5075547;28;20635;-76
2021/01/06 00:38:21;;;;;;;3.83;3.53;;;5.70;99.90;;;;;;5092302;28;20248;-77
2021/01/06 00:40:47;;;;;;;3.67;3.15;;;5.70;99.90;;;;;;5085763;28;20206;-77
2021/01/06 00:43:15;;;;;;;4.43;3.70;;;5.70;99.90;;;;;;5075703;28;20561;-77
2021/01/06 00:45:42;;;;;;;4.90;3.90;;;5.70;99.90;;;;;;5075049;28;20201;-77
2021/01/06 00:48:10;;;;;;;5.57;4.25;;;5.70;99.90;;;;;;5075877;28;20192;-77
2021/01/06 00:50:37;;;;;;;3.42;2.83;;;5.70;99.90;;;;;;5082831;28;20193;-77
2021/01/06 00:53:05;;;;;;;4.65;3.95;;;5.70;99.90;;;;;;5088839;28;20194;-77
2021/01/06 00:55:32;;;;;;;4.05;3.65;;;5.70;99.90;;;;;;5082289;28;20193;-77
2021/01/06 00:57:59;;;;;;;4.45;3.88;;;5.70;99.90;;;;;;5094126;28;20684;-77
2021/01/06 01:00:34;;;;;;;3.65;3.35;;;5.70;99.90;;;;;;5080451;28;20205;-77
2021/01/06 01:03:00;;;;;;;7.15;4.30;;;5.70;99.90;;;;;;5091240;28;20205;-77
2021/01/06 01:05:30;;;;;;;5.00;3.58;;;5.70;99.90;;;;;;5095119;28;20201;-77
2021/01/06 01:07:57;;;;;;;3.47;3.15;;;5.80;99.90;;;;;;5083267;28;20186;-77
2021/01/06 01:10:27;;;;;;;5.43;3.30;;;5.70;99.90;;;;;;5074913;28;20212;-76
2021/01/06 01:12:53;;;;;;;5.22;4.00;;;5.70;99.90;;;;;;5075085;28;20202;-77
2021/01/06 01:15:21;;;;;;;4.25;3.85;;;5.70;99.90;;;;;;5077953;28;20216;-76
2021/01/06 01:17:48;;;;;;;4.35;3.85;;;5.60;99.90;;;;;;5089011;28;20210;-76
2021/01/06 01:20:15;;;;;;;4.80;4.40;;;5.70;99.90;;;;;;5074635;28;20198;-76
2021/01/06 01:22:44;;;;;;;4.07;3.20;;;5.70;99.90;;;;;;5089139;28;20629;-77
2021/01/06 01:25:12;;;;;;;5.13;4.15;;;5.70;99.90;;;;;;5084850;28;20198;-76
2021/01/06 01:27:38;;;;;;;4.97;4.32;;;5.80;99.90;;;;;;5074678;28;20187;-76
2021/01/06 01:30:07;;;;;;;3.17;2.80;;;5.80;99.90;;;;;;5074433;28;20587;-77
2021/01/06 01:32:34;;;;;;;4.10;3.30;;;5.80;99.90;;;;;;5078106;28;20193;-77
2021/01/06 01:35:00;;;;;;;3.42;3.13;;;5.80;99.90;;;;;;5092320;28;20194;-76
2021/01/06 01:37:26;;;;;;;6.95;4.75;;;5.70;99.90;;;;;;5093198;28;20670;-76
2021/01/06 01:39:53;;;;;;;5.05;4.30;;;5.70;99.90;;;;;;5084118;28;20198;-76
2021/01/06 01:42:19;;;;;;;3.88;3.47;;;5.70;99.90;;;;;;5083564;28;20854;-76
2021/01/06 01:44:56;;;;;;;5.28;4.05;;;5.70;99.90;;;;;;5076667;28;20633;-76
2021/01/06 01:47:27;;;;;;;5.25;3.33;;;5.70;99.90;;;;;;5092439;28;20193;-76
2021/01/06 01:49:53;;;;;;;4.15;3.67;;;5.70;99.90;;;;;;5092388;28;20197;-76
2021/01/06 01:52:31;;;;;;;4.72;3.42;;;5.80;99.90;;;;;;5075699;28;20206;-76
2021/01/06 01:55:02;;;;;;;3.47;3.05;;;5.80;99.90;;;;;;5094127;28;20181;-75
2021/01/06 01:57:34;;;;;;;4.07;3.63;;;5.70;99.90;;;;;;5093320;28;20205;-76
2021/01/06 02:00:10;;;;;;;4.28;3.88;;;5.70;99.90;;;;;;5087229;28;20193;-76
2021/01/06 02:02:45;;;;;;;3.58;3.22;;;5.70;99.90;;;;;;5093151;28;20269;-76
2021/01/06 02:05:14;;;;;;;5.18;3.67;;;5.70;99.90;;;;;;5091316;28;20189;-76
2021/01/06 02:07:55;;;;;;;4.03;3.60;;;5.70;99.90;;;;;;5075857;28;20197;-76
2021/01/06 02:10:28;;;;;;;3.90;3.50;;;5.70;99.90;;;;;;5073966;28;20537;-76
2021/01/06 02:13:00;;;;;;;4.05;3.17;;;5.70;99.90;;;;;;5073713;28;20193;-76
2021/01/06 02:15:36;;;;;;;4.25;3.85;;;5.70;99.90;;;;;;5073998;28;20198;-76
2021/01/06 02:18:03;;;;;;;4.72;3.58;;;5.80;99.90;;;;;;5090350;28;20196;-76
2021/01/06 02:20:31;;;;;;;5.18;3.05;;;5.70;99.90;;;;;;5080456;28;20663;-76
2021/01/06 02:23:00;;;;;;;5.18;3.70;;;5.70;99.90;;;;;;5088446;28;20198;-77
2021/01/06 02:25:28;;;;;;;4.30;3.90;;;5.70;99.90;;;;;;5093412;28;20598;-77
2021/01/06 02:27:56;;;;;;;6.35;4.22;;;5.70;99.90;;;;;;5077543;28;20194;-77
2021/01/06 02:30:24;;;;;;;4.78;3.20;;;5.70;99.90;;;;;;5073315;28;20208;-77
2021/01/06 02:32:50;;;;;;;4.90;4.20;;;5.70;99.90;;;;;;5074410;28;20252;-78
2021/01/06 02:35:19;;;;;;;4.65;4.18;;;5.70;99.90;;;;;;5080535;28;20195;-77
2021/01/06 02:37:46;;;;;;;4.47;3.83;;;5.70;99.90;;;;;;5078693;28;20225;-77
2021/01/06 02:40:15;;;;;;;4.07;3.10;;;5.70;99.90;;;;;;5074142;28;20202;-76
2021/01/06 02:42:42;;;;;;;4.90;4.25;;;5.80;99.90;;;;;;5085452;28;20202;-76
2021/01/06 02:45:12;;;;;;;5.43;3.95;;;5.70;99.90;;;;;;5080353;28;20634;-77
2021/01/06 02:47:40;;;;;;;3.75;3.15;;;5.80;99.90;;;;;;5092650;28;20188;-77
2021/01/06 02:50:10;;;;;;;3.78;3.47;;;5.80;99.90;;;;;;5075191;28;20191;-77
2021/01/06 02:52:41;;;;;;;5.45;4.03;;;5.80;99.90;;;;;;5083667;28;20542;-76
2021/01/06 02:55:09;;;;;;;4.97;3.63;;;5.80;99.90;;;;;;5082850;28;20275;-77
2021/01/06 02:57:37;;;;;;;7.05;4.50;;;5.80;99.90;;;;;;5083752;28;20670;-77
2021/01/06 03:00:05;;;;;;;4.50;4.10;;;5.80;99.90;;;;;;5083115;28;20198;-76
2021/01/06 03:02:32;;;;;;;6.82;5.00;;;5.80;99.90;;;;;;5075425;28;20186;-76
2021/01/06 03:05:04;;;;;;;5.35;3.88;;;5.90;99.90;;;;;;5072638;28;20206;-76
2021/01/06 03:07:32;;;;;;;4.97;4.50;;;5.90;99.90;;;;;;5076737;28;20907;-76
2021/01/06 03:09:58;;;;;;;6.55;4.63;;;5.80;99.90;;;;;;5072562;28;20213;-76
2021/01/06 03:12:27;;;;;;;5.35;2.83;;;5.80;99.90;;;;;;5072575;28;20206;-76
2021/01/06 03:14:54;;;;;;;7.53;5.13;;;5.80;99.90;;;;;;5072408;28;20631;-76
2021/01/06 03:17:21;;;;;;;5.50;4.35;;;5.80;99.90;;;;;;5085250;28;20267;-76
2021/01/06 03:19:51;;;;;;;4.22;3.17;;;5.80;99.90;;;;;;5087064;28;20194;-76
2021/01/06 03:22:21;;;;;;;4.47;3.50;;;5.80;99.90;;;;;;5072787;28;20634;-76
2021/01/06 03:24:51;;;;;;;4.28;3.50;;;5.80;99.90;;;;;;5072668;28;20198;-76
2021/01/06 03:27:19;;;;;;;3.83;3.42;;;5.80;99.90;;;;;;5072319;28;20198;-76
2021/01/06 03:29:46;;;;;;;6.32;4.20;;;5.80;99.90;;;;;;5074496;28;20201;-76
2021/01/06 03:32:24;;;;;;;4.38;3.40;;;5.90;99.90;;;;;;5085004;28;20204;-76
2021/01/06 03:34:57;;;;;;;5.95;5.00;;;5.90;99.90;;;;;;5072184;28;20254;-77
2021/01/06 03:37:29;;;;;;;4.40;3.30;;;5.90;99.90;;;;;;5073880;28;20696;-77
2021/01/06 03:40:02;;;;;;;5.13;4.20;;;5.90;99.90;;;;;;5085917;28;20205;-77
2021/01/06 03:42:28;;;;;;;5.07;3.50;;;5.80;99.90;;;;;;5080782;28;20197;-77
2021/01/06 03:44:55;;;;;;;6.95;4.35;;;5.80;99.90;;;;;;5092349;28;20652;-76
2021/01/06 03:47:25;;;;;;;4.95;4.00;;;5.80;99.90;;;;;;5085025;28;20198;-76
2021/01/06 03:49:58;;;;;;;4.78;3.97;;;5.80;99.90;;;;;;5076376;28;20200;-78
2021/01/06 03:52:36;;;;;;;5.78;3.50;;;5.80;99.90;;;;;;5090898;28;20193;-77
2021/01/06 03:55:11;;;;;;;4.40;4.00;;;5.80;99.90;;;;;;5091758;28;20201;-76
2021/01/06 03:57:38;;;;;;;3.92;3.25;;;5.80;99.90;;;;;;5079044;28;20201;-77
2021/01/06 04:00:08;;;;;;;5.03;4.20;;;5.80;99.90;;;;;;5089867;28;20194;-76
2021/01/06 04:02:42;;;;;;;4.22;3.83;;;5.80;99.90;;;;;;5092076;28;20201;-76
2021/01/06 04:05:13;;;;;;;4.55;3.42;;;5.80;99.90;;;;;;5090959;28;20185;-77
2021/01/06 04:07:43;;;;;;;3.40;3.10;;;5.80;99.90;;;;;;5072418;28;20190;-76
2021/01/06 04:10:12;;;;;;;4.13;3.83;;;5.80;99.90;;;;;;5078466;28;20185;-77
2021/01/06 04:12:39;;;;;;;4.05;3.50;;;5.90;99.90;;;;;;5091780;28;20618;-76
2021/01/06 04:15:08;;;;;;;5.10;4.25;;;5.90;99.90;;;;;;5091795;28;20197;-77
2021/01/06 04:17:36;;;;;;;7.10;4.50;;;5.90;99.90;;;;;;5075274;28;20233;-76
2021/01/06 04:20:08;;;;;;;3.63;3.33;;;5.90;99.90;;;;;;5077694;28;20196;-77
2021/01/06 04:22:42;;;;;;;4.30;3.70;;;5.90;99.90;;;;;;5092137;28;20212;-77
2021/01/06 04:25:20;;;;;;;4.80;4.30;;;5.90;99.90;;;;;;5091456;28;20567;-77
2021/01/06 04:27:48;;;;;;;4.00;3.55;;;5.90;99.90;;;;;;5089317;28;20185;-77
2021/01/06 04:30:24;;;;;;;5.20;3.78;;;5.90;99.90;;;;;;5078768;28;20210;-77
2021/01/06 04:32:51;;;;;;;5.38;4.32;;;5.90;99.90;;;;;;5071825;28;20227;-77
2021/01/06 04:35:20;;;;;;;5.10;4.70;;;5.90;99.90;;;;;;5071492;28;20247;-78
2021/01/06 04:37:46;;;;;;;5.28;4.78;;;5.90;99.90;;;;;;5071791;28;20839;-77
2021/01/06 04:40:15;;;;;;;4.97;3.72;;;5.80;99.90;;;;;;5071365;28;20198;-76
2021/01/06 04:42:44;;;;;;;6.80;5.13;;;5.80;99.90;;;;;;5071430;28;20258;-77
2021/01/06 04:45:14;;;;;;;4.90;4.40;;;5.80;99.90;;;;;;5071441;28;20260;-76
2021/01/06 04:48:14;;;;;;;5.50;5.03;;;5.80;99.90;;;;;;5071326;28;20538;-77
2021/01/06 04:50:59;;;;;;;6.70;4.68;;;5.80;99.90;;;;;;5061229;28;20194;-77
2021/01/06 04:53:36;;;;;;;3.95;3.55;;;5.90;99.90;;;;;;5071672;28;20198;-77
2021/01/06 04:56:17;;;;;;;4.80;4.30;;;5.90;99.90;;;;;;5071341;28;20202;-77
2021/01/06 04:58:55;;;;;;;7.72;4.13;;;5.90;99.90;;;;;;5071890;28;20209;-76
2021/01/06 05:01:35;;;;;;;5.35;4.85;;;5.90;99.90;;;;;;5083450;28;20197;-76
2021/01/06 05:04:14;;;;;;;6.05;5.43;;;5.80;99.90;;;;;;5082571;28;20316;-76
2021/01/06 05:06:56;;;;;;;5.20;4.75;;;5.80;99.90;;;;;;5091428;28;20197;-77
2021/01/06 05:09:26;;;;;;;5.35;4.85;;;5.80;99.90;;;;;;5091534;28;20186;-77
2021/01/06 05:12:02;;;;;;;5.68;4.28;;;5.80;99.90;;;;;;5071434;28;20205;-77
2021/01/06 05:14:34;;;;;;;5.55;5.05;;;5.80;99.90;;;;;;5085852;28;20181;-76
2021/01/06 05:17:00;;;;;;;4.78;4.20;;;5.90;99.90;;;;;;5079377;28;20193;-77
2021/01/06 05:19:30;;;;;;;5.00;4.50;;;5.90;99.90;;;;;;5074029;28;20230;-76
2021/01/06 05:21:58;;;;;;;5.38;4.88;;;5.90;99.90;;;;;;5088901;28;20196;-76
2021/01/06 05:24:30;;;;;;;6.50;5.22;;;5.80;99.90;;;;;;5077816;28;20793;-77
2021/01/06 05:27:15;;;;;;;6.30;5.13;;;5.80;99.90;;;;;;5085138;28;20190;-76
2021/01/06 05:29:43;;;;;;;6.82;5.93;;;5.80;99.90;;;;;;5074125;28;20548;-76
2021/01/06 05:32:16;;;;;;;6.13;5.07;;;5.90;99.90;;;;;;5094790;28;20209;-76
2021/01/06 05:34:43;;;;;;;7.47;5.90;;;5.80;99.90;;;;;;5088372;28;20190;-76
2021/01/06 05:37:14;;;;;;;5.45;4.80;;;5.80;99.90;;;;;;5083726;28;20241;-77
2021/01/06 05:39:41;;;;;;;4.70;4.30;;;5.80;99.90;;;;;;5074400;28;20661;-77
2021/01/06 05:42:11;;;;;;;4.88;4.47;;;5.80;99.90;;;;;;5074461;28;20259;-76
2021/01/06 05:44:38;;;;;;;5.20;4.70;;;5.80;99.90;;;;;;5090068;28;20196;-77
2021/01/06 05:47:15;;;;;;;5.78;5.18;;;5.80;99.90;;;;;;5077574;28;20200;-77
2021/01/06 05:49:41;;;;;;;5.32;4.82;;;5.80;99.90;;;;;;5081418;28;20242;-76
2021/01/06 05:52:11;;;;;;;6.05;4.93;;;5.80;99.90;;;;;;5094572;28;20215;-76
2021/01/06 05:54:43;;;;;;;6.13;5.53;;;5.80;99.90;;;;;;5077440;28;20682;-76
2021/01/06 05:57:20;;;;;;;4.68;4.28;;;5.80;99.90;;;;;;5074054;28;20190;-76
2021/01/06 06:00:15;;;;;;;5.47;4.03;;;5.80;99.90;;;;;;5074991;28;20206;-76
2021/01/06 06:02:50;;;;;;;5.03;4.47;;;5.90;99.90;;;;;;5073792;28;20723;-77
2021/01/06 06:05:35;;;;;;;6.25;5.60;;;6.00;99.90;;;;;;5074163;28;20189;-77
2021/01/06 06:08:21;;;;;;;5.90;5.30;;;5.90;99.90;;;;;;5088089;28;20179;-76
2021/01/06 06:11:04;;;;;;;5.10;4.60;;;5.90;99.90;;;;;;5073947;28;20519;-77
2021/01/06 06:13:53;;;;;;;5.32;4.80;;;5.90;99.90;;;;;;5074216;28;20652;-77
2021/01/06 06:16:39;;;;;;;6.00;4.80;;;5.90;99.90;;;;;;5081963;28;20652;-76
2021/01/06 06:19:28;;;;;;;6.80;5.65;;;5.90;99.90;;;;;;5079792;28;20210;-76
2021/01/06 06:22:02;;;;;;;6.95;5.78;;;6.00;99.90;;;;;;5092949;28;20208;-76
2021/01/06 06:24:44;;;;;;;4.82;4.43;;;5.90;99.90;;;;;;5074056;28;20207;-76
2021/01/06 06:27:32;;;;;;;5.28;4.65;;;5.90;99.90;;;;;;5089204;28;20201;-77
2021/01/06 06:30:18;;;;;;;6.15;4.53;;;5.90;99.90;;;;;;5073394;28;20634;-76
2021/01/06 06:32:48;;;;;;;5.85;4.47;;;5.90;99.90;;;;;;5073152;28;20194;-76
2021/01/06 06:35:20;;;;;;;4.75;4.35;;;5.90;99.90;;;;;;5073604;28;20206;-76
2021/01/06 06:37:51;;;;;;;5.43;4.82;;;5.90;99.90;;;;;;5074246;28;20230;-76
2021/01/06 06:40:19;;;;;;;6.35;4.82;;;5.90;99.90;;;;;;5088429;28;20206;-76
2021/01/06 06:42:51;;;;;;;5.30;4.80;;;5.90;99.90;;;;;;5073909;28;20198;-76
2021/01/06 06:45:55;;;;;;;7.32;4.72;;;5.90;99.90;;;;;;5073102;28;20186;-76
2021/01/06 06:48:36;;;;;;;4.60;3.90;;;5.90;99.90;;;;;;5073449;28;20189;-76
2021/01/06 06:51:12;;;;;;;4.95;4.45;;;5.90;99.90;;;;;;5086145;28;20850;-76
2021/01/06 06:53:53;;;;;;;5.45;4.45;;;5.90;99.90;;;;;;5081356;28;20194;-77
2021/01/06 06:56:28;;;;;;;5.60;5.10;;;5.90;99.90;;;;;;5080531;28;20224;-76
2021/01/06 06:58:58;;;;;;;5.82;5.25;;;5.90;99.90;;;;;;5084407;28;20216;-76
2021/01/06 07:01:32;;;;;;;5.22;4.70;;;5.90;99.90;;;;;;5091503;28;20205;-76
2021/01/06 07:04:04;;;;;;;6.22;5.60;;;5.90;99.90;;;;;;5072314;28;20668;-76
2021/01/06 07:06:31;;;;;;;5.22;4.78;;;5.90;99.90;;;;;;5072342;28;20201;-77
2021/01/06 07:09:00;;;;;;;5.63;4.45;;;5.90;99.90;;;;;;5077241;28;20194;-77
2021/01/06 07:11:32;;;;;;;6.93;5.18;;;5.90;99.90;;;;;;5089395;28;20288;-77
2021/01/06 07:14:05;;;;;;;5.45;4.93;;;5.90;99.90;;;;;;5078785;28;20332;-77
2021/01/06 07:16:37;;;;;;;6.00;5.40;;;5.80;99.90;;;;;;5075210;28;20277;-77
2021/01/06 07:19:22;;;;;;;5.25;4.57;;;5.80;99.90;;;;;;5072617;28;20213;-78
2021/01/06 07:21:53;;;;;;;4.60;4.20;;;5.80;99.90;;;;;;5072376;28;20186;-78
2021/01/06 07:24:22;;;;;;;4.80;4.30;;;5.80;99.90;;;;;;5072558;28;20656;-78
2021/01/06 07:26:54;;;;;;;5.03;4.53;;;5.80;99.90;;;;;;5072270;28;20546;-77
2021/01/06 07:29:24;;;;;;;7.53;6.65;;;5.80;99.90;;;;;;5076706;28;20216;-77
2021/01/06 07:31:57;;;;;;;5.68;4.60;;;5.80;99.90;;;;;;5072443;28;20610;-77
2021/01/06 07:34:30;;;;;;;4.88;4.38;;;5.80;99.90;;;;;;5083595;28;20225;-77
2021/01/06 07:37:01;;;;;;;6.15;4.80;;;5.80;99.90;;;;;;5085815;28;20229;-77
2021/01/06 07:39:30;;;;;;;6.32;5.53;;;5.90;99.90;;;;;;5072105;28;20229;-78
2021/01/06 07:42:02;;;;;;;6.03;5.43;;;5.90;99.90;;;;;;5088657;28;20201;-78
2021/01/06 07:44:30;;;;;;;5.15;4.20;;;5.90;99.90;;;;;;5075939;28;20186;-77
2021/01/06 07:47:07;;;;;;;5.00;4.60;;;5.80;99.90;;;;;;5077576;28;20189;-76
2021/01/06 07:49:42;;;;;;;5.05;4.55;;;5.80;99.90;;;;;;5083288;28;20673;-76
2021/01/06 07:52:36;;;;;;;4.53;3.90;;;5.80;99.90;;;;;;5092177;28;20197;-77
2021/01/06 07:55:17;;;;;;;6.78;5.85;;;5.90;99.90;;;;;;5091422;28;20197;-77
2021/01/06 07:57:47;;;;;;;5.78;5.22;;;5.90;99.90;;;;;;5084094;28;20641;-77
2021/01/06 08:00:17;;;;;;;5.03;4.53;;;5.90;99.90;;;;;;5086058;28;20244;-77
2021/01/06 08:02:55;;;;;;;6.05;4.32;;;5.90;99.90;;;;;;5073143;28;20194;-77
2021/01/06 08:05:27;;;;;;;5.47;4.97;;;5.80;99.90;;;;;;5071918;28;20200;-76
2021/01/06 08:08:10;;;;;;;6.55;5.00;;;5.90;99.90;;;;;;5082122;28;20662;-76
2021/01/06 08:10:38;;;;;;;7.30;5.40;;;5.90;99.90;;;;;;5071965;28;20213;-75
2021/01/06 08:13:14;;;;;;;4.90;4.35;;;5.90;99.90;;;;;;5074591;28;20443;-76
2021/01/06 08:15:42;;;;;;;5.78;4.47;;;5.90;99.90;;;;;;5083588;28;20205;-76
2021/01/06 08:18:12;;;;;;;5.00;4.60;;;5.90;99.90;;;;;;5088859;28;20269;-76
2021/01/06 08:20:55;;;;;;;5.38;4.57;;;5.90;99.90;;;;;;5073795;28;20206;-72
2021/01/06 08:23:27;;;;;;;6.20;4.88;;;5.80;99.90;;;;;;5076486;28;20189;-77
2021/01/06 08:25:59;;;;;;;5.50;4.82;;;5.80;99.90;;;;;;5075333;28;20243;-76
2021/01/06 08:28:28;;;;;;;5.60;5.10;;;5.80;99.90;;;;;;5079656;28;20196;-76
2021/01/06 08:31:07;;;;;;;7.85;5.30;;;5.90;99.90;;;;;;5084580;28;20576;-76
2021/01/06 08:33:33;;;;;;;6.15;5.05;;;5.90;99.90;;;;;;5087408;28;20200;-73
2021/01/06 08:36:11;;;;;;;5.68;4.43;;;5.90;99.90;;;;;;5087665;28;20197;-79
2021/01/06 08:38:43;;;;;;;6.15;5.55;;;5.80;99.90;;;;;;5075707;28;20237;-76
2021/01/06 08:41:22;;;;;;;4.72;4.30;;;5.90;99.90;;;;;;5071709;28;20596;-79
2021/01/06 08:43:50;;;;;;;5.35;4.78;;;5.90;99.90;;;;;;5082399;28;20236;-75
2021/01/06 08:46:21;;;;;;;6.05;5.55;;;5.90;99.90;;;;;;5086669;28;20507;-76
2021/01/06 08:48:48;;;;;;;6.50;5.85;;;5.90;99.90;;;;;;5072462;28;20194;-76
2021/01/06 08:51:31;;;;;;;8.70;5.50;;;5.90;99.90;;;;;;5089355;28;20201;-77
2021/01/06 08:53:58;;;;;;;6.53;4.70;;;6.00;99.90;;;;;;5090755;28;20258;-76
2021/01/06 08:56:26;;;;;;;5.53;4.95;;;5.90;99.90;;;;;;5089885;28;20691;-76
2021/01/06 08:58:55;;;;;;;6.45;5.18;;;5.90;99.90;;;;;;5081393;28;20217;-79
2021/01/06 09:01:33;;;;;;;6.10;5.50;;;5.90;99.90;;;;;;5093363;28;20205;-77
2021/01/06 09:04:07;;;;;;;7.65;5.78;;;5.90;99.90;;;;;;5089304;28;20629;-74
2021/01/06 09:06:36;;;;;;;5.57;5.07;;;5.90;99.90;;;;;;5092070;28;20349;-75
2021/01/06 09:09:27;;;;;;;7.80;5.60;;;5.80;99.90;;;;;;5079167;28;20236;-75
2021/01/06 09:11:54;;;;;;;5.47;4.97;;;5.80;99.90;;;;;;5078134;28;20205;-76
2021/01/06 09:14:31;;;;;;;6.80;5.22;;;5.90;99.90;;;;;;5095051;28;20201;-75
2021/01/06 09:17:03;;;;;;;7.50;5.68;;;5.90;99.90;;;;;;5090272;28;20270;-75
2021/01/06 09:19:37;;;;;;;6.22;5.43;;;5.90;99.90;;;;;;5084042;28;20688;-75
2021/01/06 09:22:04;;;;;;;6.32;5.45;;;6.00;99.90;;;;;;5085748;28;20201;-77
2021/01/06 09:24:33;;;;;;;8.07;5.10;;;5.90;99.90;;;;;;5092978;28;20201;-74
2021/01/06 09:27:03;;;;;;;5.78;5.10;;;5.90;99.90;;;;;;5094143;28;20699;-76
2021/01/06 09:29:34;;;;;;;5.60;4.75;;;5.90;99.90;;;;;;5074113;28;20243;-75
2021/01/06 09:32:04;;;;;;;6.35;5.30;;;5.90;99.90;;;;;;5074875;28;20190;-74
2021/01/06 09:34:36;;;;;;;6.53;5.00;;;6.00;99.90;;;;;;5085066;28;20209;-76
2021/01/06 09:37:03;;;;;;;5.22;4.72;;;6.00;99.90;;;;;;5088779;28;20227;-77
2021/01/06 09:39:33;;;;;;;7.85;5.30;;;6.00;99.90;;;;;;5083847;28;20223;-77
2021/01/06 09:42:01;;;;;;;5.18;4.70;;;5.90;99.90;;;;;;5088270;28;20198;-76
2021/01/06 09:44:31;;;;;;;6.13;5.22;;;6.10;99.90;;;;;;5083798;28;20205;-77
2021/01/06 09:47:01;;;;;;;6.13;4.70;;;6.10;99.90;;;;;;5094382;28;20263;-74
2021/01/06 09:49:35;;;;;;;6.32;5.72;;;6.10;99.90;;;;;;5090007;28;20208;-73
2021/01/06 09:52:06;;;;;;;5.07;3.90;;;6.10;99.90;;;;;;5087456;28;20193;-74
2021/01/06 09:54:33;;;;;;;3.78;3.47;;;6.10;99.90;;;;;;5087442;28;20258;-74
2021/01/06 09:57:01;;;;;;;4.95;4.45;;;6.10;99.90;;;;;;5088025;28;20209;-75
2021/01/06 09:59:32;;;;;;;6.68;4.93;;;6.10;99.90;;;;;;5090322;28;20210;-75
2021/01/06 10:02:03;;;;;;;5.65;5.15;;;6.00;99.90;;;;;;5088024;28;20178;-76
2021/01/06 10:04:35;;;;;;;5.45;4.95;;;6.00;99.90;;;;;;5080884;28;20248;-76
2021/01/06 10:07:25;;;;;;;6.88;5.00;;;6.00;99.90;;;;;;5073242;28;20210;-76
2021/01/06 10:09:56;;;;;;;5.32;4.72;;;6.00;99.90;;;;;;5073171;28;20588;-76
2021/01/06 10:12:37;;;;;;;4.75;4.25;;;6.00;99.90;;;;;;5086571;28;20194;-77
2021/01/06 10:15:40;;;;;;;7.43;5.35;;;6.00;99.90;;;;;;5082863;28;20642;-78
2021/01/06 10:18:25;;;;;;;4.45;4.00;;;6.10;99.90;;;;;;5094024;28;20201;-77
2021/01/06 10:20:58;;;;;;;4.88;4.47;;;6.00;99.90;;;;;;5093175;28;20197;-78
2021/01/06 10:23:34;;;;;;;6.07;5.47;;;6.00;99.90;;;;;;5083528;28;20206;-78
2021/01/06 10:26:11;;;;;;;5.10;4.60;;;6.00;99.90;;;;;;5092221;28;20189;-78
2021/01/06 10:28:43;;;;;;;6.18;4.93;;;6.10;99.90;;;;;;5092421;28;20710;-77
2021/01/06 10:31:13;;;;;;;7.35;5.20;;;6.10;99.90;;;;;;5075779;28;20829;-78
2021/01/06 10:34:02;;;;;;;7.85;5.40;;;6.10;99.90;;;;;;5078599;28;20687;-78
2021/01/06 10:36:51;;;;;;;8.30;5.50;;;6.10;99.90;;;;;;5074703;28;20202;-78
2021/01/06 10:39:22;;;;;;;6.60;5.82;;;6.10;99.90;;;;;;5078310;28;20214;-77
2021/01/06 10:41:58;;;;;;;5.80;5.25;;;6.00;99.90;;;;;;5075428;28;20198;-78
2021/01/06 10:44:29;;;;;;;6.00;5.40;;;6.00;99.90;;;;;;5079493;28;20212;-77
2021/01/06 10:47:27;;;;;;;6.13;5.53;;;6.00;99.90;;;;;;5082937;28;20561;-78
2021/01/06 10:49:57;;;;;;;7.38;3.80;;;6.10;99.90;;;;;;5074385;28;20209;-78
2021/01/06 10:52:29;;;;;;;7.40;6.35;;;6.00;99.90;;;;;;5092199;28;20195;-78
2021/01/06 10:55:30;;;;;;;5.45;4.95;;;6.00;99.90;;;;;;5077157;28;20209;-78
2021/01/06 10:58:04;;;;;;;7.43;6.47;;;6.00;99.90;;;;;;5083754;28;20229;-77
2021/01/06 11:00:51;;;;;;;5.50;5.00;;;6.00;99.90;;;;;;5081907;28;20188;-77
2021/01/06 11:03:36;;;;;;;5.95;5.25;;;5.90;99.90;;;;;;5091393;28;20201;-77
2021/01/06 11:06:14;;;;;;;7.15;5.70;;;6.00;99.90;;;;;;5072670;28;20194;-77
2021/01/06 11:08:53;;;;;;;5.38;4.60;;;5.90;99.90;;;;;;5083071;28;20626;-77
2021/01/06 11:11:30;;;;;;;5.90;5.25;;;5.90;99.90;;;;;;5072164;28;20258;-77
2021/01/06 11:14:32;;;;;;;7.13;5.60;;;5.90;99.90;;;;;;5086809;28;20197;-77
2021/01/06 11:17:28;;;;;;;6.05;5.43;;;5.90;99.90;;;;;;5085368;28;20192;-77
2021/01/06 11:19:58;;;;;;;7.80;6.35;;;6.00;99.90;;;;;;5085278;28;20209;-77
2021/01/06 11:22:38;;;;;;;7.03;6.03;;;6.00;99.90;;;;;;5083381;28;20193;-77
2021/01/06 11:25:32;;;;;;;6.57;5.47;;;6.00;99.90;;;;;;5083911;28;20802;-77
2021/01/06 11:28:19;;;;;;;5.72;5.10;;;6.00;99.90;;;;;;5081432;28;20182;-77
2021/01/06 11:31:15;;;;;;;6.68;6.07;;;6.00;99.90;;;;;;5092244;28;20265;-77
2021/01/06 11:33:41;;;;;;;7.10;6.07;;;6.00;99.90;;;;;;5090532;28;20205;-77
2021/01/06 11:36:25;;;;;;;6.85;5.70;;;6.00;99.90;;;;;;5082379;28;20677;-77
2021/01/06 11:38:54;;;;;;;8.25;6.13;;;6.00;99.90;;;;;;5080709;28;20205;-77
2021/01/06 11:41:57;;;;;;;7.28;5.75;;;6.00;99.90;;;;;;5078619;28;20198;-78
2021/01/06 11:44:30;;;;;;;7.07;5.95;;;6.00;99.90;;;;;;5072432;28;20190;-77
2021/01/06 11:47:20;;;;;;;6.00;5.40;;;6.00;99.90;;;;;;5082014;28;20248;-77
2021/01/06 11:50:01;;;;;;;7.05;5.07;;;6.00;99.90;;;;;;5069781;28;20256;-78
2021/01/06 11:52:40;;;;;;;7.90;5.82;;;6.00;99.90;;;;;;5077627;28;20185;-77
2021/01/06 11:55:36;;;;;;;7.25;6.53;;;6.00;99.90;;;;;;5077705;28;20200;-78
2021/01/06 11:58:25;;;;;;;6.82;5.47;;;6.00;99.90;;;;;;5066700;28;20190;-77
2021/01/06 12:01:13;;;;;;;6.53;5.93;;;6.00;99.90;;;;;;5071636;28;20720;-78
2021/01/06 12:04:00;;;;;;;7.50;6.00;;;6.10;99.90;;;;;;5085619;28;20197;-77
2021/01/06 12:06:40;;;;;;;8.88;6.47;;;6.00;99.90;;;;;;5079219;28;20266;-78
2021/01/06 12:09:23;;;;;;;5.85;4.55;;;6.00;99.90;;;;;;5072064;28;20208;-78
2021/01/06 12:11:57;;;;;;;5.78;5.15;;;6.00;99.90;;;;;;5074907;28;20769;-78
2021/01/06 12:14:35;;;;;;;6.13;5.25;;;6.00;99.90;;;;;;5074819;28;20528;-78
2021/01/06 12:17:16;;;;;;;5.72;5.20;;;6.00;99.90;;;;;;5072964;28;20196;-77
2021/01/06 12:19:56;;;;;;;7.05;6.28;;;6.00;99.90;;;;;;5077435;28;20210;-73
2021/01/06 12:22:24;;;;;;;5.97;5.47;;;6.10;99.90;;;;;;5087467;28;20197;-78
2021/01/06 12:25:25;;;;;;;7.30;6.05;;;6.10;99.90;;;;;;5090904;28;20212;-75
2021/01/06 12:28:02;;;;;;;7.60;6.20;;;6.00;99.90;;;;;;5073531;28;20343;-82
2021/01/06 12:30:45;;;;;;;9.05;6.05;;;6.10;99.90;;;;;;5072072;28;20529;-75
2021/01/06 12:33:34;;;;;;;6.13;5.35;;;6.00;99.90;;;;;;5078411;28;20197;-78
2021/01/06 12:36:18;;;;;;;6.82;6.05;;;6.10;99.90;;;;;;5078103;28;20262;-77
2021/01/06 12:38:45;;;;;;;5.85;5.25;;;6.00;99.90;;;;;;5095710;28;20858;-77
2021/01/06 12:41:19;;;;;;;6.18;5.40;;;6.00;99.90;;;;;;5078130;28;20255;-77
2021/01/06 12:43:48;;;;;;;6.55;5.95;;;6.00;99.90;;;;;;5075746;28;20545;-78
2021/01/06 12:46:34;;;;;;;6.65;5.20;;;6.10;99.90;;;;;;5077012;28;20202;-78
2021/01/06 12:49:18;;;;;;;6.63;5.43;;;6.00;99.90;;;;;;5088403;28;20209;-81
2021/01/06 12:51:58;;;;;;;9.65;5.25;;;6.00;99.90;;;;;;5076670;28;20190;-80
2021/01/06 12:54:36;;;;;;;6.35;5.75;;;6.10;99.90;;;;;;5075594;28;20220;-81
2021/01/06 12:57:08;;;;;;;6.28;5.38;;;6.20;99.90;;;;;;5086087;28;20288;-82
2021/01/06 12:59:46;;;;;;;6.70;5.72;;;6.10;99.90;;;;;;5090561;28;20203;-82
2021/01/06 13:02:25;;;;;;;5.05;4.35;;;6.20;99.90;;;;;;5074978;28;20190;-80
2021/01/06 13:04:52;;;;;;;6.10;5.22;;;6.30;99.90;;;;;;5074119;28;20617;-78
2021/01/06 13:07:27;;;;;;;6.18;5.60;;;6.10;99.90;;;;;;5086259;28;20207;-78
2021/01/06 13:10:00;;;;;;;6.10;5.50;;;6.10;99.90;;;;;;5094890;28;20272;-81
2021/01/06 13:12:37;;;;;;;5.53;4.53;;;6.10;99.90;;;;;;5075706;28;20186;-83
2021/01/06 13:15:08;;;;;;;6.30;4.68;;;6.10;99.90;;;;;;5080608;28;20198;-81
2021/01/06 13:17:38;;;;;;;5.85;5.22;;;6.10;99.90;;;;;;5082323;28;20200;-79
2021/01/06 13:20:32;;;;;;;5.78;5.18;;;6.10;99.90;;;;;;5074914;28;20210;-80
2021/01/06 13:23:10;;;;;;;5.95;5.35;;;6.10;99.90;;;;;;5071845;28;20696;-79
2021/01/06 13:25:39;;;;;;;6.03;5.45;;;6.00;99.90;;;;;;5074776;28;20201;-79
2021/01/06 13:28:24;;;;;;;5.30;4.78;;;6.10;99.90;;;;;;5087840;28;20198;-80
2021/01/06 13:30:52;;;;;;;5.18;4.68;;;6.10;99.90;;;;;;5073871;28;20336;-80
2021/01/06 13:33:43;;;;;;;6.28;5.20;;;6.10;99.90;;;;;;5074604;28;20683;-77